Time;durP1;ratioP1;P1;durP2;ratioP2;P2;SDS_P1;SDS_P2;PMS_P1;PMS_P2;Temp;Humidity;BMP_temperature;BMP_pressure;BME280_temperature;BME280_humidity;BME280_pressure;Samples;Min_cycle;Max_cycle;Signal;HPM_P1;HPM_P2
2021/07/14 00:00:45;;;;;;;3.97;2.90;;;;;;;;;;3574862;40;20122;-62
2021/07/14 00:03:10;;;;;;;6.32;2.40;;;;;;;;;;3583797;40;20040;-62
2021/07/14 00:05:38;;;;;;;11.77;2.80;;;;;;;;;;3583699;40;20039;-62
2021/07/14 00:08:03;;;;;;;7.22;2.60;;;;;;;;;;3583720;40;20056;-62
2021/07/14 00:10:31;;;;;;;4.05;2.53;;;;;;;;;;3582138;40;20029;-62
2021/07/14 00:23:14;;;;;;;3.85;2.53;;;;;;;;;;3583518;40;20265;-62
2021/07/14 00:25:40;;;;;;;7.80;2.58;;;;;;;;;;3583497;40;20149;-62
2021/07/14 00:28:06;;;;;;;3.55;2.58;;;;;;;;;;3584073;40;20297;-62
2021/07/14 00:30:34;;;;;;;3.75;2.53;;;;;;;;;;3582200;40;20470;-62
2021/07/14 00:33:00;;;;;;;5.05;2.50;;;;;;;;;;3582066;40;20028;-62
2021/07/14 00:35:26;;;;;;;9.60;3.10;;;;;;;;;;3583990;40;20044;-62
2021/07/14 00:37:51;;;;;;;6.45;2.53;;;;;;;;;;3583258;40;20044;-62
2021/07/14 00:40:16;;;;;;;4.22;2.50;;;;;;;;;;3583151;40;20048;-62
2021/07/14 00:42:43;;;;;;;5.53;2.95;;;;;;;;;;3582439;40;20076;-62
2021/07/14 00:45:09;;;;;;;9.18;2.88;;;;;;;;;;3583761;40;20044;-62
2021/07/14 00:47:37;;;;;;;8.05;2.78;;;;;;;;;;3583500;40;20032;-62
2021/07/14 00:50:04;;;;;;;4.80;2.60;;;;;;;;;;3583790;40;20081;-62
2021/07/14 00:52:31;;;;;;;5.90;2.60;;;;;;;;;;3582857;40;20040;-62
2021/07/14 00:54:57;;;;;;;16.67;2.80;;;;;;;;;;3585156;40;20044;-62
2021/07/14 00:57:26;;;;;;;4.15;2.50;;;;;;;;;;3583365;40;20033;-62
2021/07/14 00:59:51;;;;;;;4.97;2.55;;;;;;;;;;3584081;40;20061;-62
2021/07/14 01:02:17;;;;;;;4.32;2.55;;;;;;;;;;3585177;40;20265;-62
2021/07/14 01:04:51;;;;;;;4.57;2.42;;;;;;;;;;3582045;40;20040;-62
2021/07/14 01:07:25;;;;;;;4.40;2.50;;;;;;;;;;3582886;40;20040;-62
2021/07/14 01:09:56;;;;;;;4.50;2.80;;;;;;;;;;3583537;40;20028;-62
2021/07/14 01:12:37;;;;;;;7.45;3.00;;;;;;;;;;3583398;40;20056;-62
2021/07/14 01:15:06;;;;;;;;;;;;;;;;;;3585290;40;20045;-62
2021/07/14 01:17:37;;;;;;;6.25;2.60;;;;;;;;;;3582570;40;19931;-62
2021/07/14 01:20:27;;;;;;;5.75;3.10;;;;;;;;;;3585230;40;20049;-62
2021/07/14 01:23:11;;;;;;;3.95;2.17;;;;;;;;;;3583160;40;20300;-62
2021/07/14 01:25:52;;;;;;;4.55;2.60;;;;;;;;;;3583644;40;20048;-62
2021/07/14 01:28:19;;;;;;;4.82;2.72;;;;;;;;;;3580523;40;20134;-62
2021/07/14 01:30:47;;;;;;;3.92;2.50;;;;;;;;;;3572521;40;20380;-62
2021/07/14 01:33:15;;;;;;;5.07;3.05;;;;;;;;;;3583102;40;20032;-62
2021/07/14 01:35:45;;;;;;;3.78;2.88;;;;;;;;;;3583999;40;20055;-62
2021/07/14 01:38:13;;;;;;;5.38;3.00;;;;;;;;;;3582430;40;20392;-62
2021/07/14 01:40:41;;;;;;;5.40;2.70;;;;;;;;;;3582822;40;20857;-62
2021/07/14 01:43:08;;;;;;;6.78;3.28;;;;;;;;;;3583850;40;20052;-62
2021/07/14 01:45:37;;;;;;;4.60;2.78;;;;;;;;;;3581912;40;21602;-62
2021/07/14 01:48:04;;;;;;;3.95;2.40;;;;;;;;;;3583746;40;20048;-62
2021/07/14 01:50:32;;;;;;;4.28;2.33;;;;;;;;;;3580462;40;20801;-62
2021/07/14 01:52:58;;;;;;;4.25;2.90;;;;;;;;;;3582846;40;20040;-62
2021/07/14 01:55:24;;;;;;;10.57;3.33;;;;;;;;;;3583128;40;20063;-62
2021/07/14 01:57:55;;;;;;;7.00;3.22;;;;;;;;;;3583958;40;20119;-62
2021/07/14 02:00:21;;;;;;;5.70;2.25;;;;;;;;;;3584075;40;20029;-62
2021/07/14 02:03:01;;;;;;;4.53;2.67;;;;;;;;;;3584497;40;20035;-62
2021/07/14 02:05:28;;;;;;;4.70;2.72;;;;;;;;;;3582624;40;20041;-62
2021/07/14 02:07:53;;;;;;;4.57;2.67;;;;;;;;;;3584324;40;20057;-62
2021/07/14 02:10:19;;;;;;;8.98;3.00;;;;;;;;;;3581510;40;20646;-62
2021/07/14 02:12:47;;;;;;;5.05;2.60;;;;;;;;;;3581281;40;20292;-62
2021/07/14 02:15:13;;;;;;;5.82;2.30;;;;;;;;;;3573121;40;20110;-62
2021/07/14 02:18:02;;;;;;;6.72;2.70;;;;;;;;;;3583852;40;20080;-62
2021/07/14 02:20:27;;;;;;;5.80;2.97;;;;;;;;;;3578515;40;20045;-62
2021/07/14 02:22:53;;;;;;;6.68;2.90;;;;;;;;;;3581652;40;20056;-62
2021/07/14 02:25:20;;;;;;;4.93;2.50;;;;;;;;;;3583663;40;20060;-62
2021/07/14 02:27:45;;;;;;;4.22;2.90;;;;;;;;;;3583553;40;20051;-62
2021/07/14 02:30:21;;;;;;;4.57;3.67;;;;;;;;;;3582943;40;20392;-62
2021/07/14 02:32:50;;;;;;;6.00;3.20;;;;;;;;;;3574490;40;20040;-62
2021/07/14 02:35:17;;;;;;;12.85;3.58;;;;;;;;;;3584192;40;20037;-62
2021/07/14 02:37:52;;;;;;;7.90;2.75;;;;;;;;;;3583203;40;20037;-62
2021/07/14 02:40:24;;;;;;;6.43;3.08;;;;;;;;;;3580576;40;20383;-62
2021/07/14 02:42:52;;;;;;;11.02;3.50;;;;;;;;;;3582587;40;20145;-62
2021/07/14 02:45:18;;;;;;;5.97;3.67;;;;;;;;;;3581918;40;20044;-62
2021/07/14 02:47:44;;;;;;;5.65;2.88;;;;;;;;;;3583345;40;20036;-62
2021/07/14 02:50:22;;;;;;;6.20;3.35;;;;;;;;;;3583560;40;20268;-62
2021/07/14 02:52:52;;;;;;;4.90;3.65;;;;;;;;;;3583153;40;20041;-62
2021/07/14 02:55:20;;;;;;;;;;;;;;;;;;3583141;40;20036;-62
2021/07/14 02:57:49;;;;;;;6.72;3.42;;;;;;;;;;3582415;40;19929;-62
2021/07/14 03:00:15;;;;;;;6.57;3.47;;;;;;;;;;3583325;40;20029;-62
2021/07/14 03:02:41;;;;;;;4.45;3.10;;;;;;;;;;3582852;40;20106;-62
2021/07/14 03:05:08;;;;;;;4.43;3.45;;;;;;;;;;3583640;40;20296;-62
2021/07/14 03:07:35;;;;;;;4.40;3.17;;;;;;;;;;3584638;40;20032;-62
2021/07/14 03:10:01;;;;;;;5.82;3.83;;;;;;;;;;3585591;40;20037;-62
2021/07/14 03:12:27;;;;;;;5.10;3.35;;;;;;;;;;3584591;40;20045;-62
2021/07/14 03:14:58;;;;;;;8.88;4.10;;;;;;;;;;3583215;40;20041;-62
2021/07/14 03:17:27;;;;;;;8.85;4.25;;;;;;;;;;3583786;40;20048;-62
2021/07/14 03:19:55;;;;;;;5.63;3.38;;;;;;;;;;3584334;40;20029;-62
2021/07/14 03:22:22;;;;;;;7.15;3.35;;;;;;;;;;3584865;40;20036;-62
2021/07/14 03:24:48;;;;;;;4.55;2.97;;;;;;;;;;3584022;40;20045;-62
2021/07/14 03:27:14;;;;;;;7.90;4.00;;;;;;;;;;3582014;40;20065;-62
2021/07/14 03:29:40;;;;;;;7.68;3.40;;;;;;;;;;3582914;40;20048;-62
2021/07/14 03:32:06;;;;;;;5.05;2.90;;;;;;;;;;3575484;40;20643;-62
2021/07/14 03:34:32;;;;;;;4.95;3.40;;;;;;;;;;3575272;40;20273;-62
2021/07/14 03:37:04;;;;;;;6.60;3.70;;;;;;;;;;3585078;40;20148;-62
2021/07/14 03:39:31;;;;;;;5.82;3.42;;;;;;;;;;3584658;40;20052;-62
2021/07/14 03:41:58;;;;;;;5.40;3.88;;;;;;;;;;3583089;40;20044;-62
2021/07/14 03:44:24;;;;;;;4.93;3.50;;;;;;;;;;3584944;40;20385;-62
2021/07/14 03:46:51;;;;;;;7.22;3.80;;;;;;;;;;3582755;40;20072;-62
2021/07/14 03:49:17;;;;;;;9.07;3.67;;;;;;;;;;3582188;40;20040;-62
2021/07/14 03:51:44;;;;;;;9.65;3.90;;;;;;;;;;3584549;40;20287;-62
2021/07/14 03:54:11;;;;;;;5.07;3.22;;;;;;;;;;3582672;40;20265;-62
2021/07/14 03:56:37;;;;;;;6.88;3.88;;;;;;;;;;3583080;40;20032;-62
2021/07/14 03:59:03;;;;;;;6.90;3.60;;;;;;;;;;3582930;40;20147;-62
2021/07/14 04:01:29;;;;;;;8.70;3.50;;;;;;;;;;3583300;40;20036;-62
2021/07/14 04:03:55;;;;;;;12.85;3.83;;;;;;;;;;3582795;40;20029;-62
2021/07/14 04:06:21;;;;;;;4.50;3.80;;;;;;;;;;3582727;40;20075;-62
2021/07/14 04:09:23;;;;;;;7.72;3.78;;;;;;;;;;3583752;40;20053;-62
2021/07/14 04:11:55;;;;;;;7.10;4.20;;;;;;;;;;3581315;40;20045;-62
2021/07/14 04:14:21;;;;;;;10.90;3.97;;;;;;;;;;3582568;40;20048;-62
2021/07/14 04:16:47;;;;;;;4.20;2.95;;;;;;;;;;3577938;40;20036;-62
2021/07/14 04:19:12;;;;;;;8.98;3.60;;;;;;;;;;3584678;40;20043;-62
2021/07/14 04:21:38;;;;;;;5.25;3.17;;;;;;;;;;3583606;40;20037;-62
2021/07/14 04:24:05;;;;;;;4.53;3.33;;;;;;;;;;3581921;40;20049;-62
2021/07/14 04:26:31;;;;;;;5.32;3.03;;;;;;;;;;3585249;40;20052;-62
2021/07/14 04:28:57;;;;;;;6.15;3.17;;;;;;;;;;3584090;40;20041;-62
2021/07/14 04:31:22;;;;;;;4.82;3.00;;;;;;;;;;3582651;40;20137;-62
2021/07/14 04:33:47;;;;;;;5.88;3.03;;;;;;;;;;3583339;40;20037;-62
2021/07/14 04:36:13;;;;;;;5.68;3.15;;;;;;;;;;3584145;40;20029;-62
2021/07/14 04:38:39;;;;;;;4.90;2.92;;;;;;;;;;3583918;40;20041;-62
2021/07/14 04:41:05;;;;;;;5.47;3.30;;;;;;;;;;3583189;40;20131;-62
2021/07/14 04:43:31;;;;;;;6.68;3.67;;;;;;;;;;3572622;40;20048;-62
2021/07/14 04:45:58;;;;;;;6.45;3.50;;;;;;;;;;3585231;40;20573;-62
2021/07/14 04:48:23;;;;;;;8.63;3.20;;;;;;;;;;3584513;40;20033;-62
2021/07/14 04:50:49;;;;;;;4.10;3.45;;;;;;;;;;3582192;40;20044;-62
2021/07/14 04:53:14;;;;;;;4.80;3.03;;;;;;;;;;3583162;40;20036;-62
2021/07/14 04:55:40;;;;;;;6.93;3.45;;;;;;;;;;3583313;40;20145;-62
2021/07/14 04:58:06;;;;;;;7.88;3.20;;;;;;;;;;3572584;40;20258;-62
2021/07/14 05:00:31;;;;;;;7.35;3.45;;;;;;;;;;3583724;40;20029;-62
2021/07/14 05:02:57;;;;;;;4.07;3.15;;;;;;;;;;3584193;40;20035;-61
2021/07/14 05:05:22;;;;;;;4.53;3.22;;;;;;;;;;3584567;40;20036;-62
2021/07/14 05:07:49;;;;;;;5.55;3.50;;;;;;;;;;3583290;40;20040;-61
2021/07/14 05:10:16;;;;;;;4.82;2.97;;;;;;;;;;3582616;40;20046;-61
2021/07/14 05:12:42;;;;;;;4.30;2.90;;;;;;;;;;3583810;40;20032;-61
2021/07/14 05:15:09;;;;;;;5.22;3.08;;;;;;;;;;3584037;40;20069;-61
2021/07/14 05:17:34;;;;;;;5.50;3.13;;;;;;;;;;3582872;40;20048;-61
2021/07/14 05:20:00;;;;;;;4.30;3.20;;;;;;;;;;3583845;40;20025;-61
2021/07/14 05:22:25;;;;;;;3.67;2.88;;;;;;;;;;3582350;40;20037;-61
2021/07/14 05:24:51;;;;;;;4.00;2.95;;;;;;;;;;3582706;40;20045;-60
2021/07/14 05:27:16;;;;;;;5.35;3.40;;;;;;;;;;3583105;40;20141;-61
2021/07/14 05:29:42;;;;;;;7.22;3.80;;;;;;;;;;3583278;40;20029;-61
2021/07/14 05:32:07;;;;;;;5.45;3.60;;;;;;;;;;3582065;40;20416;-61
2021/07/14 05:34:33;;;;;;;4.18;3.30;;;;;;;;;;3582678;40;20049;-61
2021/07/14 05:36:59;;;;;;;6.07;3.58;;;;;;;;;;3584375;40;20036;-61
2021/07/14 05:39:25;;;;;;;6.03;3.58;;;;;;;;;;3581171;40;20040;-61
2021/07/14 05:41:50;;;;;;;5.28;3.58;;;;;;;;;;3581543;40;20048;-61
2021/07/14 05:44:16;;;;;;;5.63;3.60;;;;;;;;;;3582244;40;20267;-61
2021/07/14 05:46:45;;;;;;;7.07;3.83;;;;;;;;;;3573709;40;20036;-61
2021/07/14 05:49:11;;;;;;;6.97;3.58;;;;;;;;;;3583601;40;20028;-61
2021/07/14 05:51:37;;;;;;;5.07;4.05;;;;;;;;;;3582021;40;20138;-61
2021/07/14 05:54:02;;;;;;;10.65;3.85;;;;;;;;;;3581016;40;20134;-61
2021/07/14 05:56:28;;;;;;;5.88;4.00;;;;;;;;;;3580080;40;20033;-61
2021/07/14 05:58:53;;;;;;;5.07;4.22;;;;;;;;;;3580583;40;20467;-61
2021/07/14 06:01:20;;;;;;;8.93;3.60;;;;;;;;;;3581033;40;20040;-61
2021/07/14 06:03:47;;;;;;;8.48;3.38;;;;;;;;;;3580989;40;20040;-61
2021/07/14 06:06:14;;;;;;;5.03;3.70;;;;;;;;;;3580797;40;20033;-60
2021/07/14 06:08:40;;;;;;;7.20;4.18;;;;;;;;;;3583311;40;20048;-61
2021/07/14 06:11:06;;;;;;;6.25;3.88;;;;;;;;;;3580993;40;20052;-61
2021/07/14 06:13:31;;;;;;;9.05;3.97;;;;;;;;;;3581302;40;20851;-61
2021/07/14 06:15:57;;;;;;;8.05;3.80;;;;;;;;;;3580861;40;20032;-61
2021/07/14 06:18:22;;;;;;;6.95;3.65;;;;;;;;;;3582872;40;20426;-61
2021/07/14 06:20:48;;;;;;;5.38;3.42;;;;;;;;;;3582618;40;20041;-61
2021/07/14 06:23:13;;;;;;;5.72;3.88;;;;;;;;;;3582389;40;20076;-62
2021/07/14 06:25:39;;;;;;;8.45;4.50;;;;;;;;;;3580161;40;20413;-62
2021/07/14 06:28:05;;;;;;;5.57;3.70;;;;;;;;;;3582843;40;20519;-61
2021/07/14 06:30:31;;;;;;;6.85;4.18;;;;;;;;;;3583407;40;20122;-61
2021/07/14 06:32:58;;;;;;;11.30;3.38;;;;;;;;;;3583266;40;20048;-61
2021/07/14 06:35:23;;;;;;;7.15;3.38;;;;;;;;;;3581493;40;20261;-61
2021/07/14 06:37:49;;;;;;;6.88;3.70;;;;;;;;;;3585200;40;20106;-61
2021/07/14 06:40:15;;;;;;;6.93;4.18;;;;;;;;;;3584731;40;20040;-61
2021/07/14 06:42:41;;;;;;;4.43;3.72;;;;;;;;;;3583052;40;20074;-61
2021/07/14 06:45:08;;;;;;;8.15;3.72;;;;;;;;;;3582722;40;20044;-61
2021/07/14 06:47:35;;;;;;;4.15;3.20;;;;;;;;;;3584861;40;20113;-61
2021/07/14 06:50:01;;;;;;;5.60;3.47;;;;;;;;;;3583751;40;20032;-61
2021/07/14 06:52:26;;;;;;;4.20;3.40;;;;;;;;;;3574464;40;20033;-61
2021/07/14 06:54:52;;;;;;;5.22;3.83;;;;;;;;;;3574290;40;20040;-61
2021/07/14 06:57:17;;;;;;;6.90;3.58;;;;;;;;;;3582771;40;20032;-61
2021/07/14 06:59:43;;;;;;;5.13;3.30;;;;;;;;;;3584216;40;20049;-61
2021/07/14 07:02:08;;;;;;;11.20;3.60;;;;;;;;;;3583856;40;20064;-61
2021/07/14 07:04:35;;;;;;;7.80;3.22;;;;;;;;;;3583785;40;20118;-60
2021/07/14 07:07:00;;;;;;;7.70;3.60;;;;;;;;;;3582346;40;20040;-61
2021/07/14 07:09:26;;;;;;;5.57;3.08;;;;;;;;;;3584795;40;20032;-61
2021/07/14 07:11:52;;;;;;;5.70;3.67;;;;;;;;;;3584544;40;20040;-61
2021/07/14 07:14:18;;;;;;;7.78;3.80;;;;;;;;;;3584982;40;20039;-61
2021/07/14 07:16:44;;;;;;;5.60;3.78;;;;;;;;;;3583227;40;20141;-61
2021/07/14 07:19:09;;;;;;;6.45;3.97;;;;;;;;;;3583795;40;20420;-61
2021/07/14 07:21:35;;;;;;;4.20;3.50;;;;;;;;;;3583634;40;20044;-61
2021/07/14 07:24:00;;;;;;;7.25;4.03;;;;;;;;;;3584605;40;20138;-62
2021/07/14 07:26:26;;;;;;;6.97;4.25;;;;;;;;;;3584226;40;20134;-61
2021/07/14 07:28:58;;;;;;;5.55;3.53;;;;;;;;;;3582764;40;20035;-61
2021/07/14 07:31:27;;;;;;;6.57;3.78;;;;;;;;;;3583968;40;20033;-61
2021/07/14 07:33:53;;;;;;;6.38;4.00;;;;;;;;;;3585791;40;20099;-61
2021/07/14 07:36:18;;;;;;;7.07;3.83;;;;;;;;;;3583732;40;20360;-61
2021/07/14 07:38:44;;;;;;;14.52;4.32;;;;;;;;;;3583110;40;20039;-61
2021/07/14 07:41:11;;;;;;;10.20;3.97;;;;;;;;;;3583412;40;20352;-61
2021/07/14 07:43:37;;;;;;;5.43;3.92;;;;;;;;;;3582552;40;20039;-61
2021/07/14 07:46:03;;;;;;;6.85;3.80;;;;;;;;;;3582765;40;20029;-62
2021/07/14 07:48:28;;;;;;;9.75;4.35;;;;;;;;;;3574190;40;20048;-61
2021/07/14 07:50:54;;;;;;;6.55;4.32;;;;;;;;;;3582570;40;20033;-62
2021/07/14 07:53:20;;;;;;;5.88;4.05;;;;;;;;;;3582680;40;20040;-62
2021/07/14 07:55:47;;;;;;;7.00;4.32;;;;;;;;;;3580312;40;20054;-61
2021/07/14 07:58:13;;;;;;;7.55;4.25;;;;;;;;;;3581953;40;20044;-62
2021/07/14 08:00:39;;;;;;;6.90;4.38;;;;;;;;;;3580519;40;20037;-62
2021/07/14 08:03:04;;;;;;;14.27;4.68;;;;;;;;;;3581418;40;20160;-62
2021/07/14 08:05:29;;;;;;;8.35;4.30;;;;;;;;;;3582864;40;20045;-62
2021/07/14 08:07:56;;;;;;;7.03;4.53;;;;;;;;;;3582422;40;20044;-62
2021/07/14 08:10:21;;;;;;;7.03;4.35;;;;;;;;;;3582538;40;20044;-62
2021/07/14 08:12:47;;;;;;;8.05;4.78;;;;;;;;;;3574008;40;20145;-62
2021/07/14 08:15:12;;;;;;;6.05;4.13;;;;;;;;;;3583131;40;20099;-61
2021/07/14 08:17:39;;;;;;;6.22;4.20;;;;;;;;;;3583206;40;20317;-62
2021/07/14 08:20:07;;;;;;;6.95;4.15;;;;;;;;;;3583222;40;20049;-62
2021/07/14 08:22:32;;;;;;;6.32;4.43;;;;;;;;;;3582211;40;20044;-62
2021/07/14 08:24:58;;;;;;;7.07;3.67;;;;;;;;;;3581288;40;20068;-61
2021/07/14 08:27:24;;;;;;;5.07;4.00;;;;;;;;;;3582700;40;20036;-62
2021/07/14 08:29:51;;;;;;;6.47;3.92;;;;;;;;;;3582951;40;20049;-61
2021/07/14 08:32:17;;;;;;;7.45;5.00;;;;;;;;;;3582260;40;20037;-61
2021/07/14 08:34:43;;;;;;;5.75;4.35;;;;;;;;;;3581959;40;20068;-61
2021/07/14 08:37:08;;;;;;;8.38;4.45;;;;;;;;;;3580967;40;20032;-61
2021/07/14 08:39:34;;;;;;;8.18;4.90;;;;;;;;;;3582240;40;20036;-62
2021/07/14 08:42:02;;;;;;;5.90;4.35;;;;;;;;;;3583016;40;20134;-62
2021/07/14 08:44:28;;;;;;;9.98;5.18;;;;;;;;;;3581622;40;20037;-61
2021/07/14 08:46:54;;;;;;;6.28;4.50;;;;;;;;;;3581046;40;20048;-61
2021/07/14 08:49:20;;;;;;;7.72;4.80;;;;;;;;;;3582269;40;20040;-61
2021/07/14 08:51:46;;;;;;;9.25;5.05;;;;;;;;;;3576555;40;20049;-61
2021/07/14 08:54:11;;;;;;;5.82;4.10;;;;;;;;;;3580794;40;20123;-62
2021/07/14 08:56:37;;;;;;;5.25;4.60;;;;;;;;;;3579870;40;20386;-61
2021/07/14 08:59:03;;;;;;;6.43;4.07;;;;;;;;;;3581015;40;20032;-61
2021/07/14 09:01:29;;;;;;;6.25;4.60;;;;;;;;;;3581143;40;20036;-61
2021/07/14 09:03:54;;;;;;;6.68;4.20;;;;;;;;;;3580674;40;20033;-62
2021/07/14 09:06:20;;;;;;;6.13;4.25;;;;;;;;;;3579848;40;20033;-61
2021/07/14 09:08:45;;;;;;;6.05;4.53;;;;;;;;;;3580725;40;20272;-61
2021/07/14 09:11:11;;;;;;;8.45;4.85;;;;;;;;;;3581974;40;20048;-61
2021/07/14 09:13:40;;;;;;;8.38;4.28;;;;;;;;;;3570503;40;20036;-62
2021/07/14 09:16:07;;;;;;;11.55;4.50;;;;;;;;;;3584232;40;20122;-61
2021/07/14 09:18:33;;;;;;;6.78;3.83;;;;;;;;;;3582030;40;20081;-61
2021/07/14 09:20:59;;;;;;;6.30;4.68;;;;;;;;;;3581360;40;20045;-61
2021/07/14 09:23:30;;;;;;;5.95;4.03;;;;;;;;;;3582818;40;20125;-61
2021/07/14 09:25:59;;;;;;;6.38;4.28;;;;;;;;;;3581516;40;20268;-62
2021/07/14 09:28:33;;;;;;;8.75;4.57;;;;;;;;;;3582448;40;20042;-61
2021/07/14 09:31:12;;;;;;;6.20;4.18;;;;;;;;;;3580869;40;20037;-62
2021/07/14 09:33:43;;;;;;;12.15;4.93;;;;;;;;;;3582900;40;20051;-62
2021/07/14 09:36:08;;;;;;;9.80;5.50;;;;;;;;;;3582411;40;20044;-61
2021/07/14 09:38:37;;;;;;;8.23;5.32;;;;;;;;;;3582169;40;20063;-62
2021/07/14 09:41:05;;;;;;;12.43;5.70;;;;;;;;;;3581554;40;20045;-62
2021/07/14 09:43:33;;;;;;;7.90;5.20;;;;;;;;;;3583616;40;20048;-62
2021/07/14 09:46:00;;;;;;;8.30;5.75;;;;;;;;;;3582892;40;20040;-62
2021/07/14 09:48:28;;;;;;;8.05;5.72;;;;;;;;;;3582669;40;20056;-62
2021/07/14 09:51:01;;;;;;;6.32;5.38;;;;;;;;;;3580619;40;20033;-61
2021/07/14 09:53:29;;;;;;;6.68;5.53;;;;;;;;;;3582707;40;20039;-62
2021/07/14 09:55:59;;;;;;;8.25;5.80;;;;;;;;;;3580794;40;20043;-62
2021/07/14 09:58:28;;;;;;;8.82;5.53;;;;;;;;;;3581564;40;20326;-61
2021/07/14 10:01:01;;;;;;;21.70;5.32;;;;;;;;;;3582514;40;20036;-61
2021/07/14 10:03:36;;;;;;;7.93;5.72;;;;;;;;;;3582851;40;20037;-61
2021/07/14 10:06:13;;;;;;;7.22;5.93;;;;;;;;;;3583880;40;20036;-61
2021/07/14 10:08:43;;;;;;;9.18;5.20;;;;;;;;;;3579281;40;20051;-61
2021/07/14 10:11:14;;;;;;;10.07;5.60;;;;;;;;;;3580611;40;20059;-61
2021/07/14 10:13:58;;;;;;;6.22;5.57;;;;;;;;;;3581510;40;20383;-61
2021/07/14 10:16:28;;;;;;;6.65;5.60;;;;;;;;;;3581194;40;20416;-61
2021/07/14 10:19:03;;;;;;;8.23;5.75;;;;;;;;;;3581901;40;20047;-61
2021/07/14 10:21:31;;;;;;;9.23;5.95;;;;;;;;;;3584080;40;20052;-61
2021/07/14 10:23:57;;;;;;;6.40;5.65;;;;;;;;;;3584241;40;20084;-61
2021/07/14 10:26:23;;;;;;;6.82;5.65;;;;;;;;;;3584492;40;20052;-61
2021/07/14 10:28:50;;;;;;;9.25;5.93;;;;;;;;;;3585177;40;20477;-61
2021/07/14 10:31:20;;;;;;;12.05;6.35;;;;;;;;;;3583957;40;20068;-61
2021/07/14 10:33:46;;;;;;;9.75;5.90;;;;;;;;;;3583624;40;20048;-62
2021/07/14 10:36:14;;;;;;;6.32;5.22;;;;;;;;;;3581251;40;20041;-63
2021/07/14 10:38:47;;;;;;;7.90;6.85;;;;;;;;;;3584409;40;20044;-62
2021/07/14 10:41:13;;;;;;;9.70;6.45;;;;;;;;;;3583707;40;20073;-61
2021/07/14 10:43:39;;;;;;;7.15;6.35;;;;;;;;;;3583916;40;20052;-61
2021/07/14 10:46:06;;;;;;;7.53;5.93;;;;;;;;;;3582840;40;20072;-62
2021/07/14 10:48:31;;;;;;;10.18;6.47;;;;;;;;;;3584039;40;20033;-61
2021/07/14 10:50:57;;;;;;;10.02;7.03;;;;;;;;;;3584622;40;20367;-62
2021/07/14 10:53:23;;;;;;;9.10;6.00;;;;;;;;;;3584480;40;20296;-62
2021/07/14 10:55:52;;;;;;;7.38;6.55;;;;;;;;;;3582774;40;20032;-63
2021/07/14 10:58:22;;;;;;;9.02;6.20;;;;;;;;;;3582773;40;20039;-63
2021/07/14 11:00:48;;;;;;;7.78;6.95;;;;;;;;;;3584532;40;20292;-63
2021/07/14 11:03:36;;;;;;;8.40;5.78;;;;;;;;;;3582248;40;20064;-63
2021/07/14 11:06:06;;;;;;;8.18;6.05;;;;;;;;;;3582894;40;20040;-63
2021/07/14 11:08:48;;;;;;;9.32;6.10;;;;;;;;;;3583170;40;20065;-63
2021/07/14 11:11:24;;;;;;;8.85;6.55;;;;;;;;;;3582958;40;20036;-63
2021/07/14 11:14:14;;;;;;;9.52;6.55;;;;;;;;;;3583776;40;20193;-63
2021/07/14 11:16:41;;;;;;;11.20;5.95;;;;;;;;;;3582749;40;20053;-63
2021/07/14 11:19:09;;;;;;;11.40;6.50;;;;;;;;;;3585494;40;20129;-64
2021/07/14 11:22:05;;;;;;;13.32;5.38;;;;;;;;;;3584508;40;20296;-63
2021/07/14 11:24:39;;;;;;;8.75;5.53;;;;;;;;;;3583799;40;20029;-61
2021/07/14 11:27:27;;;;;;;11.48;5.65;;;;;;;;;;3582962;40;20429;-63
2021/07/14 11:29:56;;;;;;;9.45;5.38;;;;;;;;;;3583416;40;20037;-61
2021/07/14 11:32:34;;;;;;;8.03;4.97;;;;;;;;;;3582236;40;20381;-61
2021/07/14 11:35:01;;;;;;;7.93;5.68;;;;;;;;;;3584664;40;20037;-61
2021/07/14 11:37:38;;;;;;;6.63;4.88;;;;;;;;;;3582487;40;20407;-62
2021/07/14 11:40:19;;;;;;;9.63;5.50;;;;;;;;;;3582648;40;20410;-62
2021/07/14 11:42:49;;;;;;;11.30;6.18;;;;;;;;;;3583256;40;20045;-63
2021/07/14 11:45:16;;;;;;;8.27;6.27;;;;;;;;;;3582114;40;20044;-63
2021/07/14 11:47:41;;;;;;;10.63;5.18;;;;;;;;;;3583775;40;20045;-64
2021/07/14 11:50:10;;;;;;;5.90;4.43;;;;;;;;;;3585838;40;20043;-63
2021/07/14 11:52:43;;;;;;;7.10;4.65;;;;;;;;;;3584629;40;20055;-63
2021/07/14 11:55:24;;;;;;;5.38;4.70;;;;;;;;;;3583749;40;20041;-63
2021/07/14 11:57:58;;;;;;;7.60;5.35;;;;;;;;;;3582645;40;20150;-63
2021/07/14 12:00:32;;;;;;;7.85;5.32;;;;;;;;;;3583414;40;20057;-63
2021/07/14 12:02:59;;;;;;;9.32;4.80;;;;;;;;;;3582956;40;20585;-62
2021/07/14 12:05:32;;;;;;;7.57;5.43;;;;;;;;;;3583436;40;20028;-62
2021/07/14 12:08:12;;;;;;;12.27;5.38;;;;;;;;;;3584867;40;20025;-62
2021/07/14 12:10:42;;;;;;;14.35;5.28;;;;;;;;;;3583761;40;20040;-62
2021/07/14 12:13:08;;;;;;;10.97;5.30;;;;;;;;;;3582228;40;20357;-62
2021/07/14 12:15:43;;;;;;;8.07;5.63;;;;;;;;;;3582581;40;20056;-63
2021/07/14 12:18:08;;;;;;;9.02;4.93;;;;;;;;;;3583685;40;20087;-63
2021/07/14 12:20:34;;;;;;;8.02;5.60;;;;;;;;;;3583849;40;20036;-62
2021/07/14 12:23:00;;;;;;;10.20;5.45;;;;;;;;;;3584754;40;20028;-62
2021/07/14 12:25:25;;;;;;;7.10;5.65;;;;;;;;;;3583363;40;20051;-63
2021/07/14 12:27:51;;;;;;;7.80;5.40;;;;;;;;;;3585805;40;20372;-62
2021/07/14 12:30:23;;;;;;;7.55;5.60;;;;;;;;;;3583522;40;20509;-62
2021/07/14 12:32:54;;;;;;;7.03;5.53;;;;;;;;;;3583071;40;20078;-61
2021/07/14 12:35:35;;;;;;;9.15;5.88;;;;;;;;;;3582474;40;20044;-61
2021/07/14 12:38:06;;;;;;;9.50;6.20;;;;;;;;;;3583852;40;20064;-61
2021/07/14 12:40:47;;;;;;;8.05;5.30;;;;;;;;;;3584829;40;20065;-61
2021/07/14 12:43:15;;;;;;;6.97;5.15;;;;;;;;;;3584446;40;20045;-61
2021/07/14 12:45:43;;;;;;;8.55;5.72;;;;;;;;;;3584378;40;20045;-62
2021/07/14 12:48:12;;;;;;;7.72;4.90;;;;;;;;;;3582929;40;20044;-61
2021/07/14 12:50:44;;;;;;;7.47;5.40;;;;;;;;;;3583765;40;20057;-61
2021/07/14 12:53:09;;;;;;;7.18;5.07;;;;;;;;;;3583586;40;20063;-62
2021/07/14 12:55:37;;;;;;;7.50;4.70;;;;;;;;;;3583514;40;20044;-62
2021/07/14 12:58:08;;;;;;;5.47;4.38;;;;;;;;;;3582149;40;20037;-63
2021/07/14 13:00:36;;;;;;;6.43;5.30;;;;;;;;;;3582251;40;20039;-62
2021/07/14 13:03:05;;;;;;;9.88;5.60;;;;;;;;;;3583375;40;20411;-62
2021/07/14 13:05:31;;;;;;;9.43;4.70;;;;;;;;;;3581596;40;20040;-63
2021/07/14 13:08:04;;;;;;;10.60;5.25;;;;;;;;;;3582374;40;20097;-62
2021/07/14 13:10:30;;;;;;;7.40;5.53;;;;;;;;;;3583081;40;20253;-62
2021/07/14 13:12:57;;;;;;;5.47;4.85;;;;;;;;;;3582842;40;20047;-63
2021/07/14 13:15:31;;;;;;;8.95;5.88;;;;;;;;;;3583560;40;20029;-63
2021/07/14 13:18:07;;;;;;;7.85;5.28;;;;;;;;;;3581674;40;20305;-62
2021/07/14 13:20:43;;;;;;;6.05;5.22;;;;;;;;;;3583325;40;20052;-63
2021/07/14 13:23:10;;;;;;;6.30;5.22;;;;;;;;;;3583719;40;20036;-62
2021/07/14 13:25:48;;;;;;;6.70;5.40;;;;;;;;;;3583964;40;20072;-63
2021/07/14 13:28:14;;;;;;;7.22;5.18;;;;;;;;;;3583543;40;20032;-63
2021/07/14 13:30:46;;;;;;;7.32;4.53;;;;;;;;;;3582272;40;20033;-63
2021/07/14 13:33:15;;;;;;;6.22;4.45;;;;;;;;;;3584991;40;20040;-62
2021/07/14 13:35:49;;;;;;;6.50;4.50;;;;;;;;;;3584445;40;20029;-63
2021/07/14 13:38:56;;;;;;;8.77;4.40;;;;;;;;;;3583100;40;20029;-63
2021/07/14 13:41:34;;;;;;;9.98;4.10;;;;;;;;;;3561996;40;20051;-62
2021/07/14 13:44:08;;;;;;;4.97;3.90;;;;;;;;;;3582676;40;20057;-62
2021/07/14 13:46:40;;;;;;;8.55;3.72;;;;;;;;;;3582896;40;20116;-62
2021/07/14 13:49:11;;;;;;;9.63;3.78;;;;;;;;;;3582165;40;20318;-62
2021/07/14 13:51:49;;;;;;;8.57;3.40;;;;;;;;;;3582361;40;20054;-62
2021/07/14 13:54:17;;;;;;;4.22;3.00;;;;;;;;;;3582280;40;20204;-62
2021/07/14 13:56:49;;;;;;;7.47;3.40;;;;;;;;;;3584743;40;20032;-63
2021/07/14 13:59:47;;;;;;;4.07;2.75;;;;;;;;;;3581754;40;20441;-62
2021/07/14 14:02:21;;;;;;;4.45;2.92;;;;;;;;;;3581516;40;20029;-62
2021/07/14 14:04:49;;;;;;;6.10;3.22;;;;;;;;;;3583359;40;20442;-62
2021/07/14 14:07:15;;;;;;;6.03;3.58;;;;;;;;;;3582158;40;20245;-62
2021/07/14 14:09:52;;;;;;;7.65;3.42;;;;;;;;;;3582684;40;20056;-62
2021/07/14 14:12:20;;;;;;;4.63;3.60;;;;;;;;;;3581642;40;20348;-61
2021/07/14 14:14:48;;;;;;;4.68;3.08;;;;;;;;;;3571572;40;20044;-61
2021/07/14 14:17:15;;;;;;;5.10;3.53;;;;;;;;;;3583887;40;20508;-62
2021/07/14 14:19:40;;;;;;;8.52;3.65;;;;;;;;;;3582320;40;20044;-61
2021/07/14 14:22:06;;;;;;;9.05;3.45;;;;;;;;;;3584020;40;20049;-61
2021/07/14 14:24:32;;;;;;;5.93;3.58;;;;;;;;;;3581177;40;20285;-61
2021/07/14 14:27:05;;;;;;;5.28;3.75;;;;;;;;;;3582778;40;20080;-62
2021/07/14 14:29:33;;;;;;;5.45;3.38;;;;;;;;;;3582893;40;20029;-61
2021/07/14 14:31:59;;;;;;;9.38;4.13;;;;;;;;;;3582658;40;20029;-61
2021/07/14 14:34:24;;;;;;;9.70;3.78;;;;;;;;;;3584131;40;20557;-61
2021/07/14 14:36:50;;;;;;;5.13;3.88;;;;;;;;;;3581372;40;20029;-62
2021/07/14 14:39:15;;;;;;;4.22;3.30;;;;;;;;;;3582601;40;20041;-61
2021/07/14 14:41:41;;;;;;;9.90;3.40;;;;;;;;;;3576497;40;20036;-62
2021/07/14 14:44:07;;;;;;;5.70;3.33;;;;;;;;;;3582005;40;20044;-63
2021/07/14 14:46:33;;;;;;;4.20;3.10;;;;;;;;;;3583943;40;20028;-62
2021/07/14 14:49:00;;;;;;;6.18;3.28;;;;;;;;;;3580517;40;20026;-62
2021/07/14 14:51:26;;;;;;;4.80;2.83;;;;;;;;;;3581788;40;20587;-63
2021/07/14 14:53:52;;;;;;;3.85;2.47;;;;;;;;;;3583728;40;20360;-63
2021/07/14 14:56:17;;;;;;;5.35;3.05;;;;;;;;;;3583265;40;20047;-62
2021/07/14 14:58:43;;;;;;;3.97;3.17;;;;;;;;;;3577991;40;20371;-63
2021/07/14 15:01:09;;;;;;;7.63;3.00;;;;;;;;;;3578137;40;20052;-62